createdAt,value
2023-05-05T00:00:00.915Z,224.94
2023-05-05T00:01:00.947Z,224.11
2023-05-05T00:02:00.962Z,223.30
2023-05-05T00:03:01.007Z,223.53
2023-05-05T00:04:00.986Z,223.77
2023-05-05T00:05:00.900Z,223.95
2023-05-05T00:06:00.902Z,224.06
2023-05-05T00:07:00.887Z,223.64
2023-05-05T00:08:00.896Z,224.79
2023-05-05T00:09:00.873Z,223.71
2023-05-05T00:10:00.868Z,223.60
2023-05-05T00:11:00.900Z,225.24
2023-05-05T00:12:00.942Z,223.36
2023-05-05T00:13:00.983Z,224.02
2023-05-05T00:14:01.033Z,223.63
2023-05-05T00:15:01.147Z,223.41
2023-05-05T00:16:01.196Z,224.90
2023-05-05T00:17:01.291Z,222.40
2023-05-05T00:18:01.294Z,222.52
2023-05-05T00:19:01.321Z,223.59
2023-05-05T00:20:01.423Z,224.08
2023-05-05T00:21:02.968Z,222.44
2023-05-05T00:22:01.534Z,221.97
2023-05-05T00:23:01.554Z,224.16
2023-05-05T00:24:01.602Z,223.25
2023-05-05T00:25:01.651Z,223.67
2023-05-05T00:26:01.729Z,224.43
2023-05-05T00:27:01.769Z,222.35
2023-05-05T00:28:01.859Z,222.50
2023-05-05T00:29:01.879Z,222.81
2023-05-05T00:30:01.965Z,223.24
2023-05-05T00:31:02.251Z,221.49
2023-05-05T00:32:02.077Z,222.33
2023-05-05T00:33:02.211Z,223.13
2023-05-05T00:34:02.213Z,223.03
2023-05-05T00:35:02.318Z,223.18
2023-05-05T00:36:02.344Z,223.86
2023-05-05T00:37:02.405Z,223.34
2023-05-05T00:38:02.590Z,221.74
2023-05-05T00:39:02.491Z,222.29
2023-05-05T00:40:02.566Z,223.44
2023-05-05T00:41:02.675Z,222.31
2023-05-05T00:42:02.682Z,221.41
2023-05-05T00:43:02.881Z,223.62
2023-05-05T00:44:02.798Z,222.44
2023-05-05T00:45:02.889Z,223.16
2023-05-05T00:46:02.984Z,221.65
2023-05-05T00:47:02.968Z,222.13
2023-05-05T00:48:03.154Z,220.90
2023-05-05T00:49:03.219Z,223.17
2023-05-05T00:50:03.150Z,222.43
2023-05-05T00:51:03.243Z,221.86
2023-05-05T00:52:03.403Z,221.53
2023-05-05T00:53:03.358Z,222.41
2023-05-05T00:54:03.393Z,221.60
2023-05-05T00:55:03.465Z,222.85
2023-05-05T00:56:03.544Z,221.11
2023-05-05T00:57:03.612Z,221.99
2023-05-05T00:58:03.709Z,221.86
2023-05-05T00:59:03.727Z,219.97
2023-05-05T01:00:03.783Z,220.98
2023-05-05T01:01:03.853Z,220.98
2023-05-05T01:02:03.908Z,221.84
2023-05-05T01:03:04.035Z,221.30
2023-05-05T01:04:04.084Z,220.55
2023-05-05T01:05:04.037Z,221.58
2023-05-05T01:06:04.071Z,222.73
2023-05-05T01:07:04.133Z,219.82
2023-05-05T01:08:04.204Z,221.11
2023-05-05T01:09:04.269Z,220.99
2023-05-05T01:10:18.186Z,219.82
2023-05-05T01:11:05.308Z,220.01
2023-05-05T01:12:04.275Z,220.27
2023-05-05T01:13:04.338Z,220.69
2023-05-05T01:14:04.272Z,221.72
2023-05-05T01:15:04.272Z,222.26
2023-05-05T01:16:04.293Z,221.72
2023-05-05T01:17:04.306Z,222.56
2023-05-05T01:18:04.286Z,221.27
2023-05-05T01:19:04.341Z,220.87
2023-05-05T01:20:04.391Z,219.40
2023-05-05T01:21:06.002Z,219.56
2023-05-05T01:22:04.463Z,220.84
2023-05-05T01:23:04.540Z,221.38
2023-05-05T01:24:04.690Z,221.44
2023-05-05T01:25:04.661Z,220.98
2023-05-05T01:26:04.730Z,221.17
2023-05-05T01:27:04.814Z,219.86
2023-05-05T01:28:04.830Z,221.35
2023-05-05T01:29:04.861Z,218.52
2023-05-05T01:30:04.941Z,220.09
2023-05-05T01:31:04.976Z,220.17
2023-05-05T01:32:04.990Z,220.71
2023-05-05T01:33:05.098Z,221.01
2023-05-05T01:34:05.123Z,221.55
2023-05-05T01:35:05.154Z,219.98
2023-05-05T01:36:05.204Z,221.41
2023-05-05T01:37:05.269Z,220.66
2023-05-05T01:38:05.282Z,219.98
2023-05-05T01:39:05.356Z,220.03
2023-05-05T01:40:05.584Z,220.45
2023-05-05T01:41:05.451Z,220.08
2023-05-05T01:42:05.495Z,219.36
2023-05-05T01:43:05.522Z,220.17
2023-05-05T01:44:05.536Z,219.59
2023-05-05T01:45:05.607Z,220.19
2023-05-05T01:46:05.687Z,218.46
2023-05-05T01:47:05.685Z,219.45
2023-05-05T01:48:05.808Z,218.20
2023-05-05T01:49:05.766Z,219.79
2023-05-05T01:50:06.116Z,219.50
2023-05-05T01:51:05.831Z,218.67
2023-05-05T01:52:05.810Z,219.76
2023-05-05T01:53:05.853Z,219.67
2023-05-05T01:54:05.885Z,218.23
2023-05-05T01:55:05.890Z,219.69
2023-05-05T01:56:05.936Z,221.10
2023-05-05T01:57:05.991Z,218.66
2023-05-05T01:58:05.977Z,219.12
2023-05-05T01:59:05.983Z,218.95
2023-05-05T02:00:06.154Z,219.54
2023-05-05T02:01:09.044Z,218.21
2023-05-05T02:02:06.117Z,220.88
2023-05-05T02:03:06.196Z,219.10
2023-05-05T02:04:06.077Z,219.45
2023-05-05T02:05:06.085Z,219.12
2023-05-05T02:06:06.095Z,218.82
2023-05-05T02:07:06.095Z,219.01
2023-05-05T02:08:06.073Z,218.61
2023-05-05T02:09:06.016Z,218.01
2023-05-05T02:10:06.345Z,219.32
2023-05-05T02:11:06.033Z,219.70
2023-05-05T02:12:06.048Z,217.11
2023-05-05T02:13:06.089Z,218.85
2023-05-05T02:14:06.003Z,219.72
2023-05-05T02:15:06.056Z,218.41
2023-05-05T02:16:06.192Z,218.60
2023-05-05T02:17:05.993Z,219.36
2023-05-05T02:18:06.059Z,219.29
2023-05-05T02:19:06.007Z,219.36
2023-05-05T02:20:06.140Z,219.18
2023-05-05T02:21:05.970Z,216.55
2023-05-05T02:22:06.141Z,217.83
2023-05-05T02:23:06.057Z,218.93
2023-05-05T02:24:05.954Z,218.92
2023-05-05T02:25:05.957Z,217.11
2023-05-05T02:26:06.166Z,219.17
2023-05-05T02:27:05.946Z,218.38
2023-05-05T02:28:05.925Z,217.16
2023-05-05T02:29:05.904Z,216.08
2023-05-05T02:30:06.100Z,218.14
2023-05-05T02:31:05.946Z,217.58
2023-05-05T02:32:05.903Z,218.84
2023-05-05T02:33:05.925Z,217.53
2023-05-05T02:34:05.879Z,218.05
2023-05-05T02:35:05.906Z,218.75
2023-05-05T02:36:06.009Z,216.61
2023-05-05T02:37:05.857Z,217.32
2023-05-05T02:38:05.844Z,217.93
2023-05-05T02:39:05.886Z,216.14
2023-05-05T02:40:06.087Z,218.10
2023-05-05T02:41:07.547Z,216.72
2023-05-05T02:42:05.859Z,217.19
2023-05-05T02:43:05.861Z,218.75
2023-05-05T02:44:05.842Z,218.95
2023-05-05T02:45:05.832Z,216.65
2023-05-05T02:46:05.826Z,216.59
2023-05-05T02:47:06.055Z,215.71
2023-05-05T02:48:05.831Z,217.28
2023-05-05T02:49:05.784Z,216.74
2023-05-05T02:50:05.873Z,216.48
2023-05-05T02:51:05.782Z,217.04
2023-05-05T02:52:05.748Z,216.59
2023-05-05T02:53:05.810Z,217.27
2023-05-05T02:54:05.746Z,214.38
2023-05-05T02:55:05.728Z,216.16
2023-05-05T02:56:05.751Z,216.89
2023-05-05T02:57:05.716Z,216.69
2023-05-05T02:58:05.719Z,216.91
2023-05-05T02:59:05.713Z,215.57
2023-05-05T03:00:06.022Z,215.96
2023-05-05T03:01:05.679Z,215.80
2023-05-05T03:02:05.699Z,217.40
2023-05-05T03:03:05.819Z,215.41
2023-05-05T03:04:05.677Z,215.82
2023-05-05T03:05:05.685Z,216.97
2023-05-05T03:06:05.709Z,216.22
2023-05-05T03:07:05.680Z,215.98
2023-05-05T03:08:05.726Z,215.73
2023-05-05T03:09:05.728Z,216.69
2023-05-05T03:10:05.939Z,217.70
2023-05-05T03:11:05.648Z,216.73
2023-05-05T03:12:05.660Z,216.11
2023-05-05T03:13:05.649Z,214.52
2023-05-05T03:14:05.598Z,215.82
2023-05-05T03:15:05.592Z,217.26
2023-05-05T03:16:05.626Z,215.40
2023-05-05T03:17:05.595Z,215.44
2023-05-05T03:18:05.600Z,216.00
2023-05-05T03:19:05.611Z,216.15
2023-05-05T03:20:05.629Z,215.53
2023-05-05T03:21:05.579Z,215.13
2023-05-05T03:22:05.574Z,215.70
2023-05-05T03:23:05.567Z,215.16
2023-05-05T03:24:05.548Z,215.83
2023-05-05T03:25:05.531Z,215.56
2023-05-05T03:26:05.526Z,214.47
2023-05-05T03:27:05.533Z,213.99
2023-05-05T03:28:05.508Z,213.55
2023-05-05T03:29:05.517Z,215.34
2023-05-05T03:30:05.644Z,213.69
2023-05-05T03:31:05.529Z,214.89
2023-05-05T03:32:05.588Z,216.04
2023-05-05T03:33:05.541Z,213.35
2023-05-05T03:34:05.503Z,215.43
2023-05-05T03:35:05.494Z,214.21
2023-05-05T03:36:05.478Z,214.49
2023-05-05T03:37:05.459Z,215.07
2023-05-05T03:38:05.478Z,214.73
2023-05-05T03:39:05.467Z,214.59
2023-05-05T03:40:05.568Z,214.21
2023-05-05T03:41:05.473Z,213.47
2023-05-05T03:42:05.456Z,214.26
2023-05-05T03:43:05.446Z,215.47
2023-05-05T03:44:05.454Z,213.85
2023-05-05T03:45:05.453Z,213.82
2023-05-05T03:46:05.440Z,214.23
2023-05-05T03:47:05.415Z,216.84
2023-05-05T03:48:05.474Z,214.62
2023-05-05T03:49:05.438Z,214.19
2023-05-05T03:50:05.580Z,214.52
2023-05-05T03:51:05.428Z,214.65
2023-05-05T03:52:05.423Z,216.61
2023-05-05T03:53:05.424Z,214.79
2023-05-05T03:54:05.434Z,213.38
2023-05-05T03:55:05.417Z,213.20
2023-05-05T03:56:05.427Z,214.72
2023-05-05T03:57:05.440Z,214.31
2023-05-05T03:58:05.641Z,214.80
2023-05-05T03:59:05.520Z,213.74
2023-05-05T04:00:06.547Z,214.24
2023-05-05T04:01:05.478Z,213.81
2023-05-05T04:02:05.466Z,214.64
2023-05-05T04:03:05.706Z,212.89
2023-05-05T04:04:05.476Z,213.88
2023-05-05T04:05:05.405Z,214.24
2023-05-05T04:06:05.390Z,214.36
2023-05-05T04:07:05.417Z,212.76
2023-05-05T04:08:05.415Z,213.17
2023-05-05T04:09:05.433Z,212.85
2023-05-05T04:10:05.524Z,213.09
2023-05-05T04:11:05.415Z,213.37
2023-05-05T04:12:05.420Z,214.31
2023-05-05T04:13:05.472Z,212.71
2023-05-05T04:14:05.480Z,212.04
2023-05-05T04:15:05.394Z,215.22
2023-05-05T04:16:05.408Z,212.51
2023-05-05T04:17:05.429Z,212.81
2023-05-05T04:18:05.475Z,213.68
2023-05-05T04:19:05.431Z,214.44
2023-05-05T04:20:05.541Z,213.51
2023-05-05T04:21:05.457Z,211.91
2023-05-05T04:22:05.458Z,212.14
2023-05-05T04:23:05.769Z,212.95
2023-05-05T04:24:05.439Z,212.40
2023-05-05T04:25:05.432Z,213.47
2023-05-05T04:26:05.451Z,211.77
2023-05-05T04:27:05.440Z,212.79
2023-05-05T04:28:05.440Z,210.69
2023-05-05T04:29:05.451Z,211.66
2023-05-05T04:30:05.565Z,211.60
2023-05-05T04:31:05.475Z,212.13
2023-05-05T04:32:05.475Z,212.77
2023-05-05T04:33:05.534Z,211.31
2023-05-05T04:34:05.447Z,209.71
2023-05-05T04:35:05.456Z,212.76
2023-05-05T04:36:05.455Z,212.55
2023-05-05T04:37:05.432Z,211.50
2023-05-05T04:38:05.489Z,210.76
2023-05-05T04:39:05.497Z,210.90
2023-05-05T04:40:05.520Z,211.54
2023-05-05T04:41:05.601Z,211.50
2023-05-05T04:42:05.452Z,211.26
2023-05-05T04:43:05.453Z,212.35
2023-05-05T04:44:05.435Z,210.99
2023-05-05T04:45:05.486Z,212.41
2023-05-05T04:46:05.526Z,210.39
2023-05-05T04:47:05.441Z,210.46
2023-05-05T04:48:05.490Z,209.72
2023-05-05T04:49:05.442Z,210.38
2023-05-05T04:50:05.458Z,211.20
2023-05-05T04:51:05.415Z,209.59
2023-05-05T04:52:05.456Z,209.60
2023-05-05T04:53:05.413Z,209.25
2023-05-05T04:54:05.410Z,210.22
2023-05-05T04:55:05.574Z,209.69
2023-05-05T04:56:05.433Z,210.71
2023-05-05T04:57:05.420Z,210.30
2023-05-05T04:58:05.478Z,211.87
2023-05-05T04:59:05.394Z,211.28
2023-05-05T05:00:05.616Z,210.43
2023-05-05T05:01:05.432Z,211.29
2023-05-05T05:02:05.467Z,211.03
2023-05-05T05:03:05.475Z,210.82
2023-05-05T05:04:05.433Z,209.40
2023-05-05T05:05:05.413Z,208.64
2023-05-05T05:06:05.428Z,211.64
2023-05-05T05:07:05.408Z,209.60
2023-05-05T05:08:05.447Z,209.93
2023-05-05T05:09:05.409Z,212.73
2023-05-05T05:10:05.591Z,210.29
2023-05-05T05:11:05.417Z,208.03
2023-05-05T05:12:05.401Z,209.77
2023-05-05T05:13:05.457Z,209.39
2023-05-05T05:14:05.449Z,210.25
2023-05-05T05:15:05.511Z,210.34
2023-05-05T05:16:05.417Z,208.55
2023-05-05T05:17:05.369Z,210.22
2023-05-05T05:18:05.429Z,207.71
2023-05-05T05:19:05.388Z,208.63
2023-05-05T05:20:05.426Z,207.28
2023-05-05T05:21:05.495Z,206.41
2023-05-05T05:22:05.439Z,208.89
2023-05-05T05:23:05.425Z,207.78
2023-05-05T05:24:05.449Z,207.81
2023-05-05T05:25:05.425Z,204.96
2023-05-05T05:26:05.651Z,204.73
2023-05-05T05:27:08.519Z,206.20
2023-05-05T05:28:09.466Z,206.27
2023-05-05T05:29:06.454Z,206.45
2023-05-05T05:30:05.482Z,206.70
2023-05-05T05:31:05.604Z,206.92
2023-05-05T05:32:05.410Z,206.71
2023-05-05T05:33:05.463Z,205.51
2023-05-05T05:34:05.641Z,205.07
2023-05-05T05:35:05.403Z,205.66
2023-05-05T05:36:07.290Z,205.84
2023-05-05T05:37:05.489Z,205.73
2023-05-05T05:38:06.404Z,205.95
2023-05-05T05:39:05.373Z,207.26
2023-05-05T05:40:05.527Z,209.56
2023-05-05T05:41:05.371Z,207.86
2023-05-05T05:42:05.460Z,207.61
2023-05-05T05:43:05.366Z,210.02
2023-05-05T05:44:05.720Z,214.26
2023-05-05T05:45:05.341Z,211.67
2023-05-05T05:46:06.946Z,213.51
2023-05-05T05:47:05.300Z,213.83
2023-05-05T05:48:06.174Z,215.14
2023-05-05T05:49:05.356Z,217.91
2023-05-05T05:50:05.405Z,223.98
2023-05-05T05:51:05.296Z,230.67
2023-05-05T05:52:05.300Z,231.56
2023-05-05T05:53:05.262Z,234.31
2023-05-05T05:54:05.295Z,237.36
2023-05-05T05:55:05.249Z,240.10
2023-05-05T05:56:05.582Z,242.84
2023-05-05T05:57:05.219Z,246.05
2023-05-05T05:58:05.386Z,243.53
2023-05-05T05:59:06.279Z,247.08
2023-05-05T06:00:05.296Z,249.61
2023-05-05T06:01:05.223Z,250.00
2023-05-05T06:02:05.252Z,249.68
2023-05-05T06:03:05.375Z,248.07
2023-05-05T06:04:05.647Z,248.53
2023-05-05T06:05:05.207Z,248.33
2023-05-05T06:06:05.193Z,250.00
2023-05-05T06:07:05.153Z,249.62
2023-05-05T06:08:05.190Z,247.92
2023-05-05T06:09:05.166Z,249.15
2023-05-05T06:10:22.873Z,249.10
2023-05-05T06:11:06.168Z,249.35
2023-05-05T06:12:05.152Z,249.13
2023-05-05T06:13:05.328Z,250.45
2023-05-05T06:14:05.127Z,248.11
2023-05-05T06:15:05.119Z,251.36
2023-05-05T06:16:05.261Z,250.04
2023-05-05T06:17:05.136Z,249.39
2023-05-05T06:18:05.093Z,248.22
2023-05-05T06:19:05.160Z,246.28
2023-05-05T06:20:05.451Z,247.26
2023-05-05T06:21:05.098Z,246.92
2023-05-05T06:22:05.159Z,246.70
2023-05-05T06:23:05.211Z,247.43
2023-05-05T06:24:05.282Z,250.00
2023-05-05T06:25:05.286Z,247.31
2023-05-05T06:26:05.408Z,247.88
2023-05-05T06:27:05.458Z,249.77
2023-05-05T06:28:05.460Z,249.69
2023-05-05T06:29:05.477Z,249.40
2023-05-05T06:30:05.639Z,249.15
2023-05-05T06:31:05.585Z,247.32
2023-05-05T06:32:05.608Z,248.47
2023-05-05T06:33:05.726Z,248.58
2023-05-05T06:34:06.120Z,247.77
2023-05-05T06:35:05.800Z,246.16
2023-05-05T06:36:05.785Z,242.17
2023-05-05T06:37:08.077Z,238.50
2023-05-05T06:38:05.714Z,237.34
2023-05-05T06:39:05.708Z,235.41
2023-05-05T06:40:05.858Z,235.99
2023-05-05T06:41:05.774Z,235.19
2023-05-05T06:42:05.791Z,235.77
2023-05-05T06:43:05.902Z,235.72
2023-05-05T06:44:06.150Z,234.32
2023-05-05T06:45:05.951Z,230.97
2023-05-05T06:46:05.900Z,231.77
2023-05-05T06:47:06.204Z,234.18
2023-05-05T06:48:06.026Z,235.66
2023-05-05T06:49:06.008Z,234.95
2023-05-05T06:50:06.192Z,235.28
2023-05-05T06:51:06.080Z,233.39
2023-05-05T06:52:06.119Z,234.14
2023-05-05T06:53:06.197Z,235.84
2023-05-05T06:54:06.664Z,239.27
2023-05-05T06:55:06.216Z,233.51
2023-05-05T06:56:07.232Z,230.90
2023-05-05T06:57:06.274Z,225.69
2023-05-05T06:58:06.298Z,216.47
2023-05-05T06:59:06.304Z,215.57
2023-05-05T07:00:07.567Z,210.60
2023-05-05T07:01:07.222Z,199.35
2023-05-05T07:02:06.323Z,191.98
2023-05-05T07:03:06.392Z,204.07
2023-05-05T07:04:06.429Z,198.00
2023-05-05T07:05:07.152Z,189.04
2023-05-05T07:06:06.442Z,178.60
2023-05-05T07:07:06.431Z,181.40
2023-05-05T07:08:06.444Z,181.43
2023-05-05T07:09:06.749Z,174.70
2023-05-05T07:10:06.755Z,171.39
2023-05-05T07:11:06.491Z,170.76
2023-05-05T07:12:06.674Z,176.81
2023-05-05T07:13:06.533Z,164.70
2023-05-05T07:14:06.677Z,164.88
2023-05-05T07:15:19.085Z,167.97
2023-05-05T07:16:07.564Z,168.33
2023-05-05T07:17:06.572Z,169.43
2023-05-05T07:18:06.655Z,163.29
2023-05-05T07:19:06.542Z,175.51
2023-05-05T07:20:06.705Z,189.35
2023-05-05T07:21:06.524Z,196.22
2023-05-05T07:22:06.554Z,187.09
2023-05-05T07:23:06.496Z,167.41
2023-05-05T07:24:06.639Z,164.02
2023-05-05T07:25:06.539Z,161.39
2023-05-05T07:26:06.497Z,162.15
2023-05-05T07:27:06.470Z,167.22
2023-05-05T07:28:06.473Z,179.04
2023-05-05T07:29:07.193Z,177.50
2023-05-05T07:30:10.915Z,183.04
2023-05-05T07:31:07.637Z,183.69
2023-05-05T07:32:06.669Z,187.19
2023-05-05T07:33:06.824Z,195.30
2023-05-05T07:34:06.648Z,206.63
2023-05-05T07:35:06.699Z,222.94
2023-05-05T07:36:06.667Z,229.68
2023-05-05T07:37:07.198Z,232.74
2023-05-05T07:38:07.695Z,234.34
2023-05-05T07:39:06.706Z,236.39
2023-05-05T07:40:06.929Z,235.99
2023-05-05T07:41:06.758Z,236.95
2023-05-05T07:42:06.711Z,236.30
2023-05-05T07:43:06.703Z,238.46
2023-05-05T07:44:06.714Z,239.15
2023-05-05T07:45:06.790Z,239.74
2023-05-05T07:46:06.744Z,240.60
2023-05-05T07:47:06.733Z,241.78
2023-05-05T07:48:06.821Z,240.24
2023-05-05T07:49:07.190Z,241.95
2023-05-05T07:50:07.137Z,243.41
2023-05-05T07:51:06.717Z,242.44
2023-05-05T07:52:06.722Z,247.92
2023-05-05T07:53:14.242Z,246.98
2023-05-05T07:54:08.151Z,246.39
2023-05-05T07:55:06.784Z,243.74
2023-05-05T07:56:06.714Z,247.27
2023-05-05T07:57:06.891Z,249.25
2023-05-05T07:58:07.741Z,250.90
2023-05-05T07:59:07.135Z,249.38
2023-05-05T08:00:07.003Z,249.28
2023-05-05T08:01:06.706Z,249.03
2023-05-05T08:02:07.220Z,250.00
2023-05-05T08:03:10.636Z,249.73
2023-05-05T08:04:06.988Z,249.93
2023-05-05T08:05:07.054Z,250.37
2023-05-05T08:06:06.685Z,251.48
2023-05-05T08:07:06.724Z,253.95
2023-05-05T08:08:08.250Z,263.82
2023-05-05T08:09:06.654Z,249.22
2023-05-05T08:10:06.631Z,248.17
2023-05-05T08:11:06.915Z,249.94
2023-05-05T08:12:06.641Z,249.93
2023-05-05T08:13:06.693Z,249.90
2023-05-05T08:14:06.613Z,247.31
2023-05-05T08:15:06.976Z,249.24
2023-05-05T08:16:06.611Z,249.67
2023-05-05T08:17:06.561Z,250.09
2023-05-05T08:18:06.671Z,249.75
2023-05-05T08:19:14.825Z,250.05
2023-05-05T08:20:07.574Z,250.20
2023-05-05T08:21:06.591Z,250.72
2023-05-05T08:22:06.588Z,251.28
2023-05-05T08:23:07.811Z,249.26
2023-05-05T08:24:06.727Z,233.10
2023-05-05T08:25:07.797Z,237.46
2023-05-05T08:26:06.529Z,232.18
2023-05-05T08:27:19.692Z,240.88
2023-05-05T08:28:06.681Z,241.29
2023-05-05T08:29:06.549Z,242.49
2023-05-05T08:30:06.501Z,244.64
2023-05-05T08:31:06.600Z,249.48
2023-05-05T08:32:06.486Z,257.39
2023-05-05T08:33:06.600Z,248.57
2023-05-05T08:34:06.480Z,237.83
2023-05-05T08:35:06.681Z,233.32
2023-05-05T08:36:06.559Z,242.32
2023-05-05T08:37:06.596Z,249.99
2023-05-05T08:38:07.474Z,249.96
2023-05-05T08:39:06.470Z,250.00
2023-05-05T08:40:06.457Z,250.00
2023-05-05T08:41:06.531Z,249.76
2023-05-05T08:42:06.415Z,250.00
2023-05-05T08:43:06.412Z,248.68
2023-05-05T08:44:06.369Z,250.00
2023-05-05T08:45:07.392Z,250.00
2023-05-05T08:46:06.409Z,250.00
2023-05-05T08:47:06.961Z,249.55
2023-05-05T08:48:06.879Z,249.24
2023-05-05T08:49:06.359Z,249.11
2023-05-05T08:50:06.371Z,248.89
2023-05-05T08:51:06.359Z,219.95
2023-05-05T08:52:07.411Z,213.41
2023-05-05T08:53:06.549Z,230.98
2023-05-05T08:54:06.702Z,211.10
2023-05-05T08:55:06.773Z,180.08
2023-05-05T08:56:06.927Z,164.72
2023-05-05T08:57:06.773Z,178.65
2023-05-05T08:58:06.796Z,184.11
2023-05-05T08:59:06.831Z,185.51
2023-05-05T09:00:06.827Z,182.43
2023-05-05T09:01:07.015Z,159.09
2023-05-05T09:02:06.968Z,169.14
2023-05-05T09:03:07.324Z,177.24
2023-05-05T09:04:07.128Z,178.06
2023-05-05T09:05:07.572Z,187.00
2023-05-05T09:06:07.176Z,190.79
2023-05-05T09:07:07.305Z,184.91
2023-05-05T09:08:07.288Z,188.02
2023-05-05T09:09:08.063Z,156.89
2023-05-05T09:10:07.443Z,158.91
2023-05-05T09:11:07.537Z,163.02
2023-05-05T09:12:07.739Z,171.68
2023-05-05T09:13:07.839Z,161.32
2023-05-05T09:14:07.671Z,142.15
2023-05-05T09:15:08.029Z,125.60
2023-05-05T09:16:07.792Z,125.23
2023-05-05T09:17:07.985Z,141.50
2023-05-05T09:18:07.972Z,143.69
2023-05-05T09:19:08.024Z,147.43
2023-05-05T09:20:09.132Z,144.34
2023-05-05T09:21:08.093Z,154.36
2023-05-05T09:22:08.127Z,156.77
2023-05-05T09:23:08.208Z,156.99
2023-05-05T09:24:09.131Z,157.00
2023-05-05T09:25:08.363Z,153.33
2023-05-05T09:26:08.145Z,156.82
2023-05-05T09:27:08.151Z,149.08
2023-05-05T09:28:08.317Z,158.23
2023-05-05T09:29:09.277Z,166.55
2023-05-05T09:30:09.153Z,167.67
2023-05-05T09:31:08.208Z,174.94
2023-05-05T09:32:08.186Z,142.77
2023-05-05T09:33:08.776Z,138.22
2023-05-05T09:34:08.274Z,129.19
2023-05-05T09:35:08.504Z,139.18
2023-05-05T09:36:08.428Z,146.58
2023-05-05T09:37:08.517Z,147.89
2023-05-05T09:38:08.753Z,158.83
2023-05-05T09:39:08.616Z,151.16
2023-05-05T09:40:08.679Z,120.55
2023-05-05T09:41:08.916Z,90.70
2023-05-05T09:42:08.809Z,87.93
2023-05-05T09:43:09.042Z,99.16
2023-05-05T09:44:08.923Z,107.76
2023-05-05T09:45:09.141Z,109.40
2023-05-05T09:46:09.083Z,111.81
2023-05-05T09:47:21.991Z,84.98
2023-05-05T09:48:10.086Z,85.00
2023-05-05T09:49:09.094Z,72.05
2023-05-05T09:50:09.278Z,72.58
2023-05-05T09:51:09.046Z,79.68
2023-05-05T09:52:09.023Z,95.58
2023-05-05T09:53:09.034Z,102.66
2023-05-05T09:54:09.080Z,99.89
2023-05-05T09:55:09.013Z,103.43
2023-05-05T09:56:09.078Z,115.20
2023-05-05T09:57:09.113Z,87.51
2023-05-05T09:58:09.289Z,83.73
2023-05-05T09:59:09.259Z,87.42
2023-05-05T10:00:09.449Z,85.25
2023-05-05T10:01:09.370Z,70.61
2023-05-05T10:02:09.486Z,84.44
2023-05-05T10:03:09.577Z,80.90
2023-05-05T10:04:09.547Z,67.07
2023-05-05T10:05:09.811Z,77.98
2023-05-05T10:06:09.640Z,65.97
2023-05-05T10:07:09.699Z,76.23
2023-05-05T10:08:09.724Z,92.16
2023-05-05T10:09:09.786Z,104.64
2023-05-05T10:10:10.209Z,112.80
2023-05-05T10:11:09.922Z,103.73
2023-05-05T10:12:09.965Z,105.45
2023-05-05T10:13:10.058Z,81.78
2023-05-05T10:14:10.117Z,59.37
2023-05-05T10:15:10.177Z,65.51
2023-05-05T10:16:10.254Z,67.71
2023-05-05T10:17:10.285Z,50.99
2023-05-05T10:18:10.435Z,52.46
2023-05-05T10:19:10.411Z,86.88
2023-05-05T10:20:10.825Z,99.91
2023-05-05T10:21:10.688Z,68.04
2023-05-05T10:22:10.576Z,80.65
2023-05-05T10:23:10.620Z,56.36
2023-05-05T10:24:10.660Z,78.39
2023-05-05T10:25:11.488Z,89.44
2023-05-05T10:26:10.827Z,95.19
2023-05-05T10:27:12.146Z,104.79
2023-05-05T10:28:11.328Z,105.17
2023-05-05T10:29:16.806Z,103.46
2023-05-05T10:30:12.455Z,104.97
2023-05-05T10:31:24.205Z,106.39
2023-05-05T10:32:30.211Z,105.40
2023-05-05T10:33:30.287Z,105.38
2023-05-05T10:34:12.261Z,105.37
2023-05-05T10:35:12.702Z,105.78
2023-05-05T10:36:13.636Z,105.01
2023-05-05T10:37:10.993Z,104.97
2023-05-05T10:38:13.911Z,79.66
2023-05-05T10:39:11.937Z,82.46
2023-05-05T10:40:11.093Z,95.14
2023-05-05T10:41:11.749Z,72.77
2023-05-05T10:42:11.292Z,86.26
2023-05-05T10:43:11.210Z,85.91
2023-05-05T10:44:11.032Z,91.47
2023-05-05T10:45:12.161Z,82.20
2023-05-05T10:46:11.564Z,95.67
2023-05-05T10:47:11.224Z,96.06
2023-05-05T10:48:11.050Z,90.92
2023-05-05T10:49:12.933Z,46.09
2023-05-05T10:50:11.215Z,82.37
2023-05-05T10:51:11.136Z,94.48
2023-05-05T10:52:11.677Z,100.81
2023-05-05T10:53:14.799Z,100.60
2023-05-05T10:54:11.639Z,100.76
2023-05-05T10:55:11.347Z,101.46
2023-05-05T10:56:11.648Z,103.63
2023-05-05T10:57:11.757Z,106.79
2023-05-05T10:58:11.253Z,108.59
2023-05-05T10:59:11.482Z,101.37
2023-05-05T11:01:30.509Z,25.00
2023-05-05T11:02:30.286Z,25.00
2023-05-05T11:03:30.365Z,25.00
2023-05-05T11:04:30.141Z,25.00
2023-05-05T11:05:30.801Z,25.00
2023-05-05T11:06:30.106Z,25.00
2023-05-05T11:07:30.258Z,29.39
2023-05-05T11:08:31.494Z,26.31
2023-05-05T11:09:30.408Z,43.74
2023-05-05T11:10:31.036Z,33.65
2023-05-05T11:11:30.537Z,34.32
2023-05-05T11:12:30.500Z,37.03
2023-05-05T11:13:30.443Z,37.62
2023-05-05T11:14:31.066Z,34.91
2023-05-05T11:15:30.858Z,34.80
2023-05-05T11:16:30.698Z,25.00
2023-05-05T11:17:30.904Z,26.05
2023-05-05T11:18:30.745Z,29.96
2023-05-05T11:19:30.855Z,37.50
2023-05-05T11:20:31.863Z,37.80
2023-05-05T11:21:30.899Z,29.45
2023-05-05T11:22:30.973Z,25.21
2023-05-05T11:23:31.204Z,25.00
2023-05-05T11:24:31.083Z,25.00
2023-05-05T11:25:31.215Z,25.00
2023-05-05T11:26:31.891Z,23.34
2023-05-05T11:27:31.266Z,37.51
2023-05-05T11:28:32.367Z,35.53
2023-05-05T11:29:31.514Z,32.46
2023-05-05T11:30:31.452Z,25.00
2023-05-05T11:31:31.624Z,49.37
2023-05-05T11:32:31.617Z,46.78
2023-05-05T11:33:31.744Z,0.00
2023-05-05T11:34:31.677Z,0.00
2023-05-05T11:35:31.767Z,0.00
2023-05-05T11:36:31.814Z,0.00
2023-05-05T11:37:31.865Z,0.00
2023-05-05T11:38:31.897Z,0.00
2023-05-05T11:39:31.902Z,32.48
2023-05-05T11:40:31.910Z,132.77
2023-05-05T11:41:31.936Z,194.31
2023-05-05T11:42:32.085Z,167.54
2023-05-05T11:43:31.977Z,204.17
2023-05-05T11:44:32.004Z,233.26
2023-05-05T11:45:32.030Z,250.00
2023-05-05T11:46:32.112Z,250.22
2023-05-05T11:47:32.279Z,245.96
2023-05-05T11:48:32.170Z,249.27
2023-05-05T11:49:32.232Z,249.62
2023-05-05T11:50:32.316Z,248.11
2023-05-05T11:51:32.353Z,250.00
2023-05-05T11:52:32.426Z,249.54
2023-05-05T11:53:32.497Z,248.22
2023-05-05T11:54:32.533Z,249.31
2023-05-05T11:55:32.688Z,247.42
2023-05-05T11:56:32.667Z,249.78
2023-05-05T11:57:32.753Z,249.02
2023-05-05T11:58:32.808Z,250.00
2023-05-05T11:59:32.843Z,249.93
2023-05-05T12:00:32.936Z,248.68
2023-05-05T12:01:32.984Z,248.83
2023-05-05T12:02:33.113Z,247.81
2023-05-05T12:03:33.173Z,250.00
2023-05-05T12:04:33.195Z,250.00
2023-05-05T12:05:34.863Z,249.42
2023-05-05T12:06:33.226Z,247.96
2023-05-05T12:07:33.228Z,247.07
2023-05-05T12:08:33.217Z,250.00
2023-05-05T12:09:33.284Z,248.85
2023-05-05T12:10:33.197Z,250.66
2023-05-05T12:11:33.198Z,250.00
2023-05-05T12:12:33.194Z,250.00
2023-05-05T12:13:33.157Z,249.61
2023-05-05T12:14:33.152Z,248.75
2023-05-05T12:15:33.167Z,248.28
2023-05-05T12:16:33.154Z,249.12
2023-05-05T12:17:33.205Z,250.00
2023-05-05T12:18:33.170Z,249.51
2023-05-05T12:19:33.196Z,249.77
2023-05-05T12:20:33.163Z,250.00
2023-05-05T12:21:33.103Z,248.35
2023-05-05T12:22:33.117Z,250.00
2023-05-05T12:23:33.084Z,249.55
2023-05-05T12:24:33.132Z,247.83
2023-05-05T12:25:33.185Z,247.96
2023-05-05T12:26:33.113Z,249.08
2023-05-05T12:27:33.295Z,248.99
2023-05-05T12:28:33.125Z,249.24
2023-05-05T12:29:33.056Z,249.55
2023-05-05T12:30:33.117Z,249.25
2023-05-05T12:31:33.108Z,249.86
2023-05-05T12:32:33.076Z,248.62